Historique des stations

Station météo de Violay

Altitude de la station : 769 m







Données météorologiques pour le 27/01/2021
Date
Heure
Températures Humidité Point de rosée Vitesse
du vent
Direction Rafales Windchill Pression Pluviométrie
Cumul
Date
Heure
Températures Humidité Point de rosée Vitesse
du vent
Direction Rafales Windchill Pression Pluviométrie
Cumul
27/01/2021 13:443.7 °C90 %2.2 °C---3.9 1019 hPa0.6 mm
27/01/2021 13:293.7 °C90 %2.2 °C---3.9 1019 hPa0.6 mm
27/01/2021 13:143.7 °C90 %2.2 °C---3.9 1019 hPa0.4 mm
27/01/2021 12:593.6 °C90 %2.2 °C---3.9 1019 hPa0.4 mm
27/01/2021 12:443.3 °C90 %1.7 °C---3.3 1019 hPa0.4 mm
27/01/2021 12:293.1 °C90 %1.7 °C---3.3 1019 hPa0.4 mm
27/01/2021 12:142.9 °C90 %1.7 °C---2.8 1019 hPa0.4 mm
27/01/2021 11:592.8 °C90 %1.7 °C---2.8 1019 hPa0.4 mm
27/01/2021 11:442.9 °C90 %1.7 °C---2.8 1019 hPa0.4 mm
27/01/2021 11:293.0 °C90 %1.7 °C---2.8 1019 hPa0.4 mm
27/01/2021 11:142.9 °C90 %1.7 °C---2.8 1019 hPa0.4 mm
27/01/2021 10:593.0 °C90 %1.7 °C---2.8 1019 hPa0.4 mm
27/01/2021 10:443.1 °C90 %1.7 °C---3.3 1018 hPa0.4 mm
27/01/2021 10:292.8 °C90 %1.1 °C---2.8 1019 hPa0.2 mm
27/01/2021 10:142.7 °C90 %1.1 °C---2.8 1019 hPa0.2 mm
27/01/2021 09:592.4 °C89 %1.1 °C---2.2 1019 hPa-
27/01/2021 09:442.8 °C89 %1.1 °C---2.8 1019 hPa-
27/01/2021 09:292.4 °C88 %0.6 °C---2.2 1019 hPa-
27/01/2021 09:141.8 °C87 %0.0 °C---1.7 1018 hPa-
27/01/2021 08:591.4 °C84 %-1.1 °C---1.7 1019 hPa-
27/01/2021 08:441.0 °C79 %-2.2 °C---1.1 1018 hPa-
27/01/2021 08:291.1 °C72 %-3.3 °C---1.1 1018 hPa-
27/01/2021 08:141.7 °C67 %-3.9 °C---1.7 1018 hPa-
27/01/2021 07:591.5 °C69 %-3.9 °C---1.7 1018 hPa-
27/01/2021 07:441.2 °C70 %-3.9 °C---1.1 1018 hPa-
27/01/2021 07:290.6 °C69 %-4.4 °C---0.6 1018 hPa-
27/01/2021 07:140.6 °C62 %-6.1 °C---0.6 1018 hPa-
27/01/2021 06:590.5 °C62 %-6.1 °C---0.6 1018 hPa-
27/01/2021 06:44-0.7 °C67 %-6.1 °C----0.6 1018 hPa-
27/01/2021 06:30-0.8 °C65 %-6.7 °C----0.6 1018 hPa-
27/01/2021 06:15-0.3 °C62 %-6.7 °C----0.6 1018 hPa-
27/01/2021 06:000.3 °C58 %-7.2 °C---0.6 1019 hPa-
27/01/2021 05:450.4 °C58 %-7.2 °C---0.6 1019 hPa-
27/01/2021 05:300.8 °C53 %-7.8 °C---0.6 1019 hPa-
27/01/2021 05:151.0 °C51 %-8.3 °C---1.1 1019 hPa-
27/01/2021 05:000.7 °C56 %-7.2 °C---0.6 1020 hPa-
27/01/2021 04:450.1 °C63 %-6.1 °C---0.0 1020 hPa-
27/01/2021 04:300.0 °C63 %-6.1 °C---0.0 1020 hPa-
27/01/2021 04:150.6 °C56 %-7.2 °C---0.6 1020 hPa-
27/01/2021 04:000.5 °C49 %-9.4 °C---0.6 1020 hPa-
27/01/2021 03:440.3 °C51 %-8.9 °C---0.6 1020 hPa-
27/01/2021 03:29-0.7 °C54 %-8.9 °C----0.6 1020 hPa-
27/01/2021 03:14-0.9 °C57 %-8.3 °C----1.1 1020 hPa-
27/01/2021 02:59-0.5 °C63 %-6.7 °C----0.6 1020 hPa-
27/01/2021 02:44-0.7 °C63 %-7.2 °C----0.6 1020 hPa-
27/01/2021 02:29-0.6 °C67 %-6.1 °C----0.6 1020 hPa-
27/01/2021 02:14-1.6 °C66 %-7.2 °C----1.7 1020 hPa-
27/01/2021 01:59-1.8 °C65 %-7.8 °C----1.7 1020 hPa-
27/01/2021 01:44-1.8 °C71 %-6.7 °C----1.7 1020 hPa-
27/01/2021 01:29-1.2 °C69 %-6.1 °C----1.1 1020 hPa-
27/01/2021 01:14-0.8 °C57 %-8.3 °C----0.6 1021 hPa-
27/01/2021 00:59-1.1 °C63 %-7.2 °C----1.1 1021 hPa-
27/01/2021 00:44-2.0 °C74 %-6.1 °C----2.2 1021 hPa-
27/01/2021 00:29-2.5 °C81 %-5.6 °C----2.2 1021 hPa-
27/01/2021 00:14-2.7 °C79 %-5.6 °C----2.8 1021 hPa-


Minima :

Température : -2.7 °C
Humidité : 49 %
Point de rosée : -9.4 °C
Vent moyen : - km/h
Windchill : -2.8
Pression atm. : 1018 hPa
Maxima :

Température : 3.7 °C
Humidité : 90 %
Point de rosée : 2.2 °C
Vent moyen : 0 km/h
Windchill : 3.9
Pression atm. : 1021 hPa
Rafales max : - km/h
Cumul de pluie sur 24H : 0.6 mm

Violay est une commune du département Loire (42).
La station météorologique du réseau de l'association la plus proche de Violay est celle de Ferrières-sur-Sichon



Icône Facebook Association Météo Centre Icône Twitter Association Météo Centre Icône Chaîne Youtube Association Météo Centre Icône contact Association Météo Centre Icône Insta Association Météo Centre